Time;durP1;ratioP1;P1;durP2;ratioP2;P2;SDS_P1;SDS_P2;PMS_P1;PMS_P2;Temp;Humidity;BMP_temperature;BMP_pressure;BME280_temperature;BME280_humidity;BME280_pressure;Samples;Min_cycle;Max_cycle;Signal;HPM_P1;HPM_P2
2022/12/21 00:02:04;;;;;;;7.07;4.07;;;7.40;99.90;;;6.35;100.00;97207.97;5049353;28;20433;-75
2022/12/21 00:04:30;;;;;;;7.45;4.10;;;7.40;99.90;;;6.35;100.00;97204.53;5049709;28;20872;-75
2022/12/21 00:06:57;;;;;;;6.20;3.95;;;7.40;99.90;;;6.32;100.00;97216.28;5049992;28;20420;-74
2022/12/21 00:09:23;;;;;;;5.60;3.72;;;7.40;99.90;;;6.33;100.00;97210.00;5032049;28;20452;-75
2022/12/21 00:11:50;;;;;;;6.15;4.10;;;7.40;99.90;;;6.30;100.00;97205.22;5049208;28;20412;-75
2022/12/21 00:14:16;;;;;;;6.40;3.83;;;7.40;99.90;;;6.37;100.00;97199.84;5031629;28;20504;-75
2022/12/21 00:16:42;;;;;;;9.37;4.37;;;7.40;99.90;;;6.39;100.00;97198.56;5049757;28;20401;-75
2022/12/21 00:19:12;;;;;;;12.05;4.20;;;7.50;99.90;;;6.39;100.00;97195.19;5049804;28;20401;-75
2022/12/21 00:21:38;;;;;;;5.55;3.97;;;7.50;99.90;;;6.42;100.00;97197.34;5049203;28;20941;-74
2022/12/21 00:24:06;;;;;;;7.40;4.10;;;7.50;99.90;;;6.45;100.00;97189.81;5049603;28;20804;-74
2022/12/21 00:26:36;;;;;;;5.10;3.63;;;7.50;99.90;;;6.50;100.00;97194.38;5049531;28;20799;-74
2022/12/21 00:29:04;;;;;;;8.57;4.40;;;7.60;99.90;;;6.53;100.00;97199.97;5049452;28;20450;-74
2022/12/21 00:31:32;;;;;;;6.82;3.92;;;7.60;99.90;;;6.59;100.00;97190.34;5048948;28;20401;-74
2022/12/21 00:33:58;;;;;;;9.25;4.00;;;7.70;99.90;;;6.66;100.00;97198.13;5031335;28;20429;-74
2022/12/21 00:36:27;;;;;;;10.93;4.00;;;7.70;99.90;;;6.76;100.00;97198.34;5049556;28;20401;-74
2022/12/21 00:38:54;;;;;;;7.68;3.58;;;7.80;99.90;;;6.92;100.00;97194.97;5049589;28;20413;-74
2022/12/21 00:41:24;;;;;;;5.82;3.67;;;7.90;99.90;;;7.13;100.00;97193.59;5030958;28;20760;-74
2022/12/21 00:43:52;;;;;;;5.60;3.50;;;8.10;99.90;;;7.20;100.00;97199.50;5049340;28;20393;-75
2022/12/21 00:46:21;;;;;;;7.50;3.47;;;8.20;99.90;;;7.23;100.00;97188.50;5049459;28;20919;-74
2022/12/21 00:48:47;;;;;;;4.97;2.78;;;8.30;99.90;;;7.25;100.00;97189.06;5049564;28;20409;-74
2022/12/21 00:51:17;;;;;;;9.15;3.70;;;8.20;99.90;;;7.31;100.00;97191.56;5048890;28;20398;-74
2022/12/21 00:53:44;;;;;;;6.78;3.60;;;8.40;99.90;;;7.39;100.00;97187.75;5049032;28;20471;-74
2022/12/21 00:56:11;;;;;;;5.72;3.20;;;8.40;99.90;;;7.39;100.00;97191.19;5049441;28;20408;-75
2022/12/21 00:58:38;;;;;;;6.72;3.00;;;8.40;99.90;;;7.36;100.00;97193.50;5053565;28;20410;-75
2022/12/21 01:01:10;;;;;;;7.10;3.10;;;8.40;99.90;;;7.47;100.00;97179.47;5035398;28;20879;-74
2022/12/21 01:03:36;;;;;;;10.45;3.65;;;8.50;99.90;;;7.58;100.00;97185.75;5052700;28;20883;-75
2022/12/21 01:06:02;;;;;;;5.00;3.23;;;8.60;99.90;;;7.56;100.00;97193.06;5053348;28;20409;-75
2022/12/21 01:08:29;;;;;;;4.78;2.92;;;8.60;99.90;;;7.53;100.00;97188.25;5053273;28;20408;-75
2022/12/21 01:11:01;;;;;;;6.03;3.03;;;8.50;99.90;;;7.47;100.00;97184.75;5053164;28;20403;-75
2022/12/21 01:13:28;;;;;;;6.25;3.30;;;8.50;99.90;;;7.42;100.00;97192.56;5034466;28;20417;-74
2022/12/21 01:15:56;;;;;;;6.25;3.25;;;8.40;99.90;;;7.40;100.00;97189.34;5053283;28;20893;-75
2022/12/21 01:18:23;;;;;;;5.63;3.45;;;8.40;99.90;;;7.45;100.00;97194.69;5053089;28;20448;-75
2022/12/21 01:20:52;;;;;;;4.93;3.17;;;8.50;99.90;;;7.42;100.00;97187.28;5035032;28;20471;-75
2022/12/21 01:23:18;;;;;;;8.82;3.70;;;8.40;99.90;;;7.45;100.00;97194.69;5052303;28;20390;-74
2022/12/21 01:25:46;;;;;;;4.13;3.05;;;8.50;99.90;;;7.46;100.00;97188.41;5052984;28;20463;-75
2022/12/21 01:28:12;;;;;;;6.63;3.45;;;8.50;99.90;;;7.59;100.00;97187.34;5034973;28;20401;-74
2022/12/21 01:30:39;;;;;;;6.78;3.40;;;8.50;99.90;;;7.60;100.00;97189.72;5052835;28;20508;-74
2022/12/21 01:33:09;;;;;;;4.70;3.20;;;8.60;99.90;;;7.73;100.00;97186.00;5051907;28;20408;-74
2022/12/21 01:35:39;;;;;;;8.48;3.30;;;8.70;99.90;;;7.68;100.00;97185.91;5052512;28;20397;-74
2022/12/21 01:38:05;;;;;;;7.00;3.40;;;8.70;99.90;;;7.68;100.00;97193.81;5052750;28;20963;-74
2022/12/21 01:40:32;;;;;;;5.03;3.00;;;8.70;99.90;;;7.67;100.00;97179.03;5052691;28;20486;-74
2022/12/21 01:42:58;;;;;;;6.13;3.10;;;8.70;99.90;;;7.76;100.00;97185.50;5051951;28;20440;-74
2022/12/21 01:45:29;;;;;;;5.65;3.33;;;8.70;99.90;;;7.80;100.00;97185.84;5053225;28;20488;-74
2022/12/21 01:47:57;;;;;;;4.30;3.03;;;8.80;99.90;;;7.76;100.00;97178.41;5034742;28;20402;-74
2022/12/21 01:50:34;;;;;;;5.20;2.80;;;8.80;99.90;;;7.75;100.00;97178.63;5052509;28;20460;-74
2022/12/21 01:53:05;;;;;;;6.85;3.30;;;8.70;99.90;;;7.75;100.00;97176.81;5051541;28;20810;-74
2022/12/21 01:55:33;;;;;;;7.75;3.67;;;8.80;99.90;;;7.87;100.00;97171.50;5052437;28;20786;-73
2022/12/21 01:58:02;;;;;;;9.95;3.42;;;8.80;99.90;;;8.02;100.00;97170.94;5052518;28;20408;-73
2022/12/21 02:00:28;;;;;;;5.45;2.58;;;8.90;99.90;;;7.91;100.00;97169.94;5052328;28;20397;-73
2022/12/21 02:03:00;;;;;;;5.65;3.28;;;8.90;99.90;;;7.86;100.00;97169.09;5033725;28;20915;-73
2022/12/21 02:05:33;;;;;;;6.03;2.90;;;8.90;99.90;;;7.84;100.00;97163.25;5052502;28;20930;-74
2022/12/21 02:08:03;;;;;;;5.40;3.10;;;8.80;99.90;;;7.74;100.00;97175.19;5051880;28;20405;-74
2022/12/21 02:10:29;;;;;;;7.68;3.40;;;8.80;99.90;;;7.87;100.00;97160.16;5050829;28;20468;-74
2022/12/21 02:13:01;;;;;;;6.30;3.20;;;8.90;99.90;;;7.85;100.00;97163.00;5051478;28;20631;-74
2022/12/21 02:15:48;;;;;;;5.47;3.00;;;8.90;99.90;;;7.82;100.00;97160.84;5034269;28;20776;-74
2022/12/21 02:18:32;;;;;;;6.83;3.30;;;8.90;99.90;;;7.80;100.00;97162.94;5052118;28;20428;-75
2022/12/21 02:21:22;;;;;;;6.63;3.27;;;8.80;99.90;;;7.93;100.00;97167.88;5051999;28;20431;-75
2022/12/21 02:24:29;;;;;;;9.33;3.57;;;8.90;99.90;;;7.89;100.00;97161.50;5051615;28;20891;-74
2022/12/21 02:27:18;;;;;;;5.93;3.10;;;8.90;99.90;;;7.81;100.00;97164.53;5051843;28;20416;-75
2022/12/21 02:30:06;;;;;;;5.93;3.22;;;8.80;99.90;;;7.72;100.00;97161.50;5033997;28;20398;-76
2022/12/21 02:32:54;;;;;;;4.22;3.05;;;8.80;99.90;;;7.64;100.00;97171.63;5051090;28;20408;-75
2022/12/21 02:35:36;;;;;;;7.80;3.50;;;8.70;99.90;;;7.67;100.00;97166.66;5051726;28;20448;-75
2022/12/21 02:38:18;;;;;;;6.57;3.47;;;8.70;99.90;;;7.76;100.00;97164.44;5051610;28;20851;-75
2022/12/21 02:40:57;;;;;;;6.30;3.33;;;8.70;99.90;;;7.69;100.00;97161.16;5051570;28;20423;-75
2022/12/21 02:46:26;;;;;;;4.25;2.90;;;8.70;99.90;;;7.56;100.00;97166.72;5051491;28;20445;-75
2022/12/21 02:49:01;;;;;;;5.15;3.10;;;8.60;99.90;;;7.52;100.00;97166.38;5051470;28;20496;-76
2022/12/21 02:51:35;;;;;;;6.38;3.38;;;8.60;99.90;;;7.53;100.00;97159.28;5050847;28;20390;-75
2022/12/21 02:54:01;;;;;;;7.88;4.20;;;8.60;99.90;;;7.49;100.00;97156.34;5050936;28;20499;-75
2022/12/21 02:56:27;;;;;;;8.70;3.30;;;8.60;99.90;;;7.49;100.00;97156.34;5051278;28;20412;-75
2022/12/21 02:58:53;;;;;;;8.50;3.22;;;8.50;99.90;;;7.53;100.00;97143.50;5051400;28;20397;-76
2022/12/21 03:01:40;;;;;;;6.73;3.53;;;8.50;99.90;;;7.57;100.00;97147.25;5050674;28;20861;-78
2022/12/21 03:04:32;;;;;;;7.47;3.67;;;8.60;99.90;;;7.50;100.00;97152.69;5050898;28;20868;-78
2022/12/21 03:07:19;;;;;;;7.22;3.70;;;8.50;99.90;;;7.42;100.00;97147.78;5051074;28;20760;-79
2022/12/21 03:09:57;;;;;;;5.27;3.63;;;8.40;99.90;;;7.42;100.00;97147.78;5051082;28;20978;-79
2022/12/21 03:12:37;;;;;;;7.10;3.70;;;8.50;99.90;;;7.49;100.00;97151.06;5050241;28;20436;-80
2022/12/21 03:15:18;;;;;;;11.10;4.18;;;8.50;99.90;;;7.36;100.00;97149.53;5050685;28;20424;-80
2022/12/21 03:17:52;;;;;;;12.50;4.28;;;8.40;99.90;;;7.35;100.00;97147.94;5050748;28;20401;-80
2022/12/21 03:20:25;;;;;;;7.30;3.88;;;8.40;99.90;;;7.36;100.00;97156.66;5032149;28;20410;-81
2022/12/21 03:22:59;;;;;;;10.55;4.50;;;8.40;99.90;;;7.38;100.00;97167.72;5049910;28;20410;-81
2022/12/21 03:25:31;;;;;;;7.33;3.83;;;8.40;99.90;;;7.36;100.00;97144.28;5050937;28;20415;-81
2022/12/21 03:28:03;;;;;;;7.87;4.00;;;8.40;99.90;;;7.45;100.00;97149.13;5053454;22;20489;-73
2022/12/21 03:30:37;;;;;;;7.47;3.90;;;8.50;99.90;;;7.40;100.00;97152.50;5037061;28;20401;-74
2022/12/21 03:33:07;;;;;;;9.07;3.78;;;8.50;99.90;;;7.42;100.00;97150.44;5050052;28;20914;-74
2022/12/21 03:35:40;;;;;;;10.57;4.28;;;8.40;99.90;;;7.36;100.00;97160.06;5050679;28;20416;-74
2022/12/21 03:38:17;;;;;;;12.73;4.45;;;8.40;99.90;;;7.38;100.00;97150.09;5050609;28;20405;-74
2022/12/21 03:40:49;;;;;;;6.55;3.63;;;8.40;99.90;;;7.36;100.00;97149.53;5050677;28;20389;-75
2022/12/21 03:43:21;;;;;;;5.35;3.55;;;8.40;99.90;;;7.36;100.00;97141.66;5031931;28;20782;-75
2022/12/21 03:45:51;;;;;;;8.57;4.07;;;8.40;99.90;;;7.47;100.00;97145.25;5050630;28;20393;-74
2022/12/21 03:48:24;;;;;;;8.90;4.13;;;8.40;99.90;;;7.39;100.00;97137.72;5050405;28;20906;-74
2022/12/21 03:50:53;;;;;;;8.55;3.92;;;8.40;99.90;;;7.38;100.00;97139.56;5050319;28;20462;-74
2022/12/21 03:53:32;;;;;;;8.43;4.07;;;8.40;99.90;;;7.37;100.00;97142.41;5031570;28;20405;-74
2022/12/21 03:56:04;;;;;;;7.93;4.10;;;8.40;99.90;;;7.32;100.00;97137.06;5050481;28;20805;-74
2022/12/21 03:58:31;;;;;;;6.77;4.30;;;8.40;99.90;;;7.35;100.00;97126.88;5050340;28;20409;-75
2022/12/21 04:01:13;;;;;;;10.90;4.63;;;8.40;99.90;;;7.33;100.00;97125.50;5050240;28;20406;-75
2022/12/21 04:03:42;;;;;;;8.88;4.30;;;8.40;99.90;;;7.43;100.00;97122.25;5049990;28;20393;-75
2022/12/21 04:06:14;;;;;;;9.70;3.70;;;8.40;99.90;;;7.37;100.00;97123.97;5050275;28;20408;-74
2022/12/21 04:08:40;;;;;;;6.30;3.80;;;8.40;99.90;;;7.35;100.00;97123.44;5050212;28;20401;-73
2022/12/21 04:12:35;;;;;;;9.35;4.30;;;8.30;99.90;;;7.31;100.00;97128.38;5049994;28;20806;-73
2022/12/21 04:13:52;;;;;;;10.03;4.30;;;8.40;99.90;;;7.32;100.00;97124.72;5049505;28;20425;-73
2022/12/21 04:16:18;;;;;;;9.38;3.95;;;8.40;99.90;;;7.31;100.00;97123.09;5050065;28;20532;-73
2022/12/21 04:21:30;;;;;;;11.23;4.18;;;8.40;99.90;;;7.37;100.00;97123.97;5049467;28;20400;-73
2022/12/21 04:29:27;;;;;;;9.32;4.00;;;8.40;99.90;;;7.33;100.00;97122.88;5049883;28;20412;-74
2022/12/21 04:31:53;;;;;;;6.50;4.00;;;8.40;99.90;;;7.48;100.00;97122.34;5049009;28;20455;-73
2022/12/21 04:34:19;;;;;;;9.43;4.05;;;8.40;99.90;;;7.43;100.00;97122.25;5049629;28;20409;-73
2022/12/21 04:39:31;;;;;;;6.57;3.83;;;8.40;99.90;;;7.46;100.00;97116.50;5030059;28;20411;-74
2022/12/21 04:41:57;;;;;;;7.72;4.00;;;8.40;99.90;;;7.41;100.00;97121.69;5029122;28;20411;-74
2022/12/21 04:44:23;;;;;;;8.87;4.17;;;8.40;99.90;;;7.47;100.00;97126.00;5029694;28;20399;-74
2022/12/21 04:46:49;;;;;;;10.15;4.05;;;8.40;99.90;;;7.49;100.00;97123.94;5029468;28;20927;-74
2022/12/21 04:49:15;;;;;;;11.77;3.80;;;8.50;99.90;;;7.39;100.00;97114.81;5029406;28;20951;-74
2022/12/21 04:51:41;;;;;;;8.88;3.88;;;8.40;99.90;;;7.42;100.00;97115.41;5029220;28;20465;-74
2022/12/21 04:54:08;;;;;;;10.97;4.10;;;8.40;99.90;;;7.51;100.00;97122.69;5029371;28;20430;-74
2022/12/21 04:56:34;;;;;;;14.45;4.07;;;8.40;99.90;;;7.46;100.00;97112.03;5029717;28;20498;-74
2022/12/21 04:59:00;;;;;;;9.48;3.80;;;8.50;99.90;;;7.43;100.00;97109.91;5029691;28;20882;-74
2022/12/21 05:01:26;;;;;;;7.38;3.92;;;8.50;99.90;;;7.53;100.00;97107.41;5011367;28;20434;-74
2022/12/21 05:03:56;;;;;;;15.95;4.60;;;8.50;99.90;;;7.48;100.00;97112.59;5029418;28;20921;-75
2022/12/21 05:06:21;;;;;;;7.18;3.75;;;8.50;99.90;;;7.47;100.00;97107.56;5029601;28;20401;-74
2022/12/21 05:08:47;;;;;;;9.07;4.37;;;8.50;99.90;;;7.40;100.00;97105.09;5029575;28;20777;-74
2022/12/21 05:11:17;;;;;;;8.07;3.90;;;8.50;99.90;;;7.41;100.00;97111.16;5028854;28;20450;-73
2022/12/21 05:13:43;;;;;;;11.18;3.80;;;8.40;99.90;;;7.43;100.00;97104.63;5024603;28;20779;-74
2022/12/21 05:16:12;;;;;;;8.40;3.97;;;8.50;99.90;;;7.49;100.00;97106.31;5029359;28;20407;-75
2022/12/21 05:18:38;;;;;;;10.85;4.40;;;8.50;99.90;;;7.53;100.00;97112.69;5029208;28;20407;-74
2022/12/21 05:21:04;;;;;;;7.78;3.85;;;8.50;99.90;;;7.50;100.00;97110.53;5025577;28;20416;-74
2022/12/21 05:23:30;;;;;;;10.48;4.05;;;8.50;99.90;;;7.47;100.00;97111.00;5024277;28;20410;-74
2022/12/21 05:25:56;;;;;;;5.85;3.63;;;8.50;99.90;;;7.46;100.00;97098.06;5023467;28;20418;-74
2022/12/21 05:28:23;;;;;;;7.63;3.83;;;8.50;99.90;;;7.48;100.00;97107.34;5020217;28;20447;-76
2022/12/21 05:30:49;;;;;;;11.75;4.10;;;8.50;99.90;;;7.51;100.00;97106.88;5018519;28;20409;-76
2022/12/21 05:33:15;;;;;;;9.35;3.90;;;8.50;99.90;;;7.49;100.00;97102.88;5017979;28;20461;-75
2022/12/21 05:35:42;;;;;;;8.50;4.15;;;8.50;99.90;;;7.57;100.00;97107.75;5002380;28;20423;-76
2022/12/21 05:38:08;;;;;;;13.15;3.92;;;8.60;99.90;;;7.53;100.00;97103.97;5022394;28;20407;-76
2022/12/21 05:40:34;;;;;;;6.95;3.50;;;8.60;99.90;;;7.58;100.00;97102.25;5014581;28;20405;-76
2022/12/21 05:43:00;;;;;;;8.50;4.00;;;8.60;99.90;;;7.51;100.00;97104.25;5010017;28;20404;-76
2022/12/21 05:45:28;;;;;;;10.00;4.05;;;8.50;99.90;;;7.53;100.00;97106.63;5013368;28;20428;-76
2022/12/21 05:47:54;;;;;;;9.30;3.90;;;8.60;99.90;;;7.52;100.00;97103.19;5013202;28;20401;-75
2022/12/21 05:50:21;;;;;;;10.70;4.05;;;8.60;99.90;;;7.54;100.00;97100.31;5014612;28;20420;-76
2022/12/21 05:52:46;;;;;;;10.32;4.10;;;8.60;99.90;;;7.52;100.00;97103.19;5029567;28;20415;-75
2022/12/21 05:55:13;;;;;;;7.30;3.80;;;8.60;99.90;;;7.55;100.00;97097.44;5031035;28;20419;-76
2022/12/21 05:57:38;;;;;;;10.80;3.97;;;8.60;99.90;;;7.57;100.00;97099.84;5031029;28;20792;-76
2022/12/21 06:00:06;;;;;;;10.65;4.30;;;8.60;99.90;;;7.54;100.00;97095.84;5014841;28;20409;-75
2022/12/21 06:02:34;;;;;;;9.53;3.87;;;8.60;99.90;;;7.55;100.00;97097.44;5031871;28;20539;-75
2022/12/21 06:05:00;;;;;;;9.27;3.80;;;8.60;99.90;;;7.54;100.00;97101.13;5032126;28;20443;-76
2022/12/21 06:07:26;;;;;;;9.73;4.07;;;8.60;99.90;;;7.60;100.00;97097.53;5022992;28;20526;-75
2022/12/21 06:09:52;;;;;;;7.20;3.92;;;8.60;99.90;;;7.55;100.00;97094.81;5023321;28;21026;-76
2022/12/21 06:12:18;;;;;;;9.32;3.63;;;8.60;99.90;;;7.56;100.00;97104.31;5013449;28;20407;-76
2022/12/21 06:14:44;;;;;;;11.03;3.83;;;8.60;99.90;;;7.53;100.00;97096.06;5032243;28;20418;-81
2022/12/21 06:17:10;;;;;;;10.15;4.03;;;8.60;99.90;;;7.53;100.00;97096.06;5032319;28;20864;-80
2022/12/21 06:19:38;;;;;;;13.90;4.10;;;8.50;99.90;;;7.53;100.00;97098.72;5030365;28;20414;-80
2022/12/21 06:22:03;;;;;;;10.20;4.13;;;8.60;99.90;;;7.65;100.00;97104.72;5013466;28;20766;-75
2022/12/21 06:24:29;;;;;;;10.55;3.70;;;8.60;99.90;;;7.60;100.00;97096.72;5031673;28;20405;-75
2022/12/21 06:26:55;;;;;;;11.18;3.90;;;8.60;99.90;;;7.61;100.00;97100.97;5032151;28;20962;-75
2022/12/21 06:29:21;;;;;;;10.47;4.43;;;8.60;99.90;;;7.59;100.00;97103.06;5032235;28;20494;-75
2022/12/21 06:31:47;;;;;;;10.10;3.85;;;8.60;99.90;;;7.57;100.00;97100.66;5031305;28;20405;-75
2022/12/21 06:34:14;;;;;;;12.32;4.00;;;8.60;99.90;;;7.61;100.00;97107.03;5031605;28;20473;-75
2022/12/21 06:36:41;;;;;;;11.90;3.95;;;8.60;99.90;;;7.72;100.00;97108.81;5026818;28;20747;-75
2022/12/21 06:39:07;;;;;;;13.55;3.75;;;8.70;99.90;;;7.67;100.00;97107.91;5022845;28;20410;-75
2022/12/21 06:41:33;;;;;;;11.20;3.70;;;8.70;99.90;;;7.69;100.00;97104.00;5026132;28;20413;-74
2022/12/21 06:43:59;;;;;;;10.57;3.70;;;8.70;99.90;;;7.63;100.00;97104.97;5027202;28;20851;-75
2022/12/21 06:46:25;;;;;;;13.30;4.50;;;8.70;99.90;;;7.69;100.00;97105.84;5001932;28;20412;-75
2022/12/21 06:48:51;;;;;;;12.43;3.83;;;8.60;99.90;;;7.64;100.00;97105.75;5027085;28;20453;-74
2022/12/21 06:51:19;;;;;;;10.40;4.30;;;8.70;99.90;;;7.63;100.00;97107.59;5028780;28;20413;-75
2022/12/21 06:53:49;;;;;;;11.60;3.88;;;8.60;99.90;;;7.71;100.00;97111.66;5022042;28;20408;-74
2022/12/21 06:56:18;;;;;;;13.13;4.07;;;8.70;99.90;;;7.72;100.00;97102.72;5019959;28;20405;-75
2022/12/21 06:58:44;;;;;;;12.93;3.80;;;8.70;99.90;;;7.68;100.00;97104.22;5020097;28;20427;-74
2022/12/21 07:01:13;;;;;;;10.80;3.72;;;8.70;99.90;;;7.72;100.00;97108.00;5023735;28;20399;-75
2022/12/21 07:03:40;;;;;;;11.30;3.38;;;8.70;99.90;;;7.68;100.00;97112.13;5022492;28;20397;-76
2022/12/21 07:06:08;;;;;;;8.48;3.45;;;8.70;99.90;;;7.72;100.00;97113.28;5023761;28;20885;-76
2022/12/21 07:08:35;;;;;;;14.75;3.70;;;8.70;99.90;;;7.73;100.00;97120.13;5005515;28;20391;-76
2022/12/21 07:11:06;;;;;;;6.93;3.40;;;8.70;99.90;;;7.70;100.00;97118.78;5022642;28;20407;-76
2022/12/21 07:13:35;;;;;;;10.45;4.05;;;8.70;99.90;;;7.69;100.00;97122.44;5020879;28;20421;-77
2022/12/21 07:16:01;;;;;;;11.68;3.60;;;8.70;99.90;;;7.69;100.00;97124.28;5023781;28;20900;-77
2022/12/21 07:18:27;;;;;;;17.75;4.55;;;8.70;99.90;;;7.66;100.00;97125.56;5022251;28;20418;-75
2022/12/21 07:20:57;;;;;;;15.23;3.80;;;8.70;99.90;;;7.67;100.00;97124.50;5023547;28;20414;-75
2022/12/21 07:23:23;;;;;;;7.97;3.60;;;8.70;99.90;;;7.71;100.00;97127.47;5021385;28;20465;-75
2022/12/21 07:25:49;;;;;;;9.13;3.70;;;8.70;99.90;;;7.80;100.00;97126.06;5019469;28;20443;-75
2022/12/21 07:28:17;;;;;;;13.18;4.53;;;8.80;99.90;;;7.83;100.00;97130.03;5021138;28;20491;-75
2022/12/21 07:30:47;;;;;;;10.32;3.67;;;8.80;99.90;;;7.77;100.00;97129.94;5021919;28;20405;-75
2022/12/21 07:33:14;;;;;;;17.33;4.28;;;8.80;99.90;;;7.78;100.00;97133.38;5022666;28;20407;-76
2022/12/21 07:35:40;;;;;;;10.20;3.90;;;8.80;99.90;;;7.77;100.00;97126.50;5024384;28;20418;-76
2022/12/21 07:38:06;;;;;;;10.77;3.72;;;8.80;99.90;;;7.73;100.00;97134.13;5014127;28;20859;-76
2022/12/21 07:40:31;;;;;;;14.10;4.07;;;8.80;99.90;;;7.70;100.00;97139.03;5025631;28;20413;-75
2022/12/21 07:42:57;;;;;;;14.10;4.28;;;8.70;99.90;;;7.68;100.00;97134.00;5012873;28;20403;-75
2022/12/21 07:45:25;;;;;;;9.98;3.70;;;8.70;99.90;;;7.68;100.00;97136.66;5020078;28;20403;-75
2022/12/21 07:47:51;;;;;;;9.15;3.70;;;8.70;99.90;;;7.70;100.00;97133.78;5022414;28;20407;-76
2022/12/21 07:50:17;;;;;;;9.32;3.92;;;8.70;99.90;;;7.77;100.00;97131.78;5021053;28;20403;-75
2022/12/21 07:52:43;;;;;;;8.47;3.50;;;8.70;99.90;;;7.85;100.00;97135.84;5011571;28;20509;-75
2022/12/21 07:55:09;;;;;;;7.72;3.63;;;8.80;99.90;;;7.82;100.00;97139.75;5013830;28;20454;-77
2022/12/21 07:57:35;;;;;;;13.93;3.80;;;8.80;99.90;;;7.83;100.00;97148.47;5012663;28;20841;-76
2022/12/21 08:00:02;;;;;;;9.95;3.60;;;8.80;99.90;;;7.77;100.00;97150.22;5004543;28;20413;-76
2022/12/21 08:02:30;;;;;;;10.83;4.20;;;8.80;99.90;;;7.74;100.00;97154.13;5017124;28;20409;-77
2022/12/21 08:04:55;;;;;;;10.20;3.38;;;8.80;99.90;;;7.83;100.00;97144.00;5011941;28;20495;-76
2022/12/21 08:07:21;;;;;;;8.47;3.50;;;8.80;99.90;;;7.84;100.00;97150.88;5029821;28;20403;-76
2022/12/21 08:09:47;;;;;;;7.07;3.15;;;8.80;99.90;;;7.77;100.00;97148.41;5029793;28;20414;-77
2022/12/21 08:12:13;;;;;;;7.55;3.67;;;8.80;99.90;;;7.72;100.00;97148.31;5028644;28;20399;-76
2022/12/21 08:14:39;;;;;;;10.05;3.75;;;8.70;99.90;;;7.72;100.00;97158.06;5029983;28;20498;-76
2022/12/21 08:17:05;;;;;;;9.77;3.92;;;8.70;99.90;;;7.70;100.00;97154.84;5012205;28;20801;-76
2022/12/21 08:19:32;;;;;;;8.25;3.92;;;8.70;99.90;;;7.72;100.00;97161.50;5030066;28;20423;-76
2022/12/21 08:21:58;;;;;;;8.70;3.90;;;8.70;99.90;;;7.74;100.00;97156.00;5029195;28;20402;-75
2022/12/21 08:24:24;;;;;;;7.43;3.70;;;8.70;99.90;;;7.75;100.00;97154.94;5029399;28;20769;-73
2022/12/21 08:26:50;;;;;;;10.77;4.20;;;8.70;99.90;;;7.72;100.00;97165.97;5029934;28;20486;-75
2022/12/21 08:29:16;;;;;;;10.20;4.07;;;8.80;99.90;;;7.70;100.00;97160.91;5029986;28;20411;-76
2022/12/21 08:31:42;;;;;;;8.10;3.70;;;8.80;99.90;;;7.69;100.00;97161.97;5028611;28;20398;-74
2022/12/21 08:34:08;;;;;;;8.17;3.90;;;8.70;99.90;;;7.76;100.00;97162.59;5028668;28;20519;-74
2022/12/21 08:36:35;;;;;;;16.48;4.30;;;8.70;99.90;;;7.72;100.00;97164.13;5029121;28;21015;-76
2022/12/21 08:39:01;;;;;;;11.65;4.32;;;8.80;99.90;;;7.74;100.00;97167.31;5029857;28;20754;-76
2022/12/21 08:41:27;;;;;;;12.27;4.30;;;8.70;99.90;;;7.72;100.00;97171.22;5029249;28;20549;-76
2022/12/21 08:43:53;;;;;;;11.57;3.90;;;8.80;99.90;;;7.76;100.00;97159.97;5029462;28;20510;-75
2022/12/21 08:46:19;;;;;;;8.73;3.90;;;8.80;99.90;;;7.76;100.00;97165.22;5029785;28;20403;-79
2022/12/21 08:48:46;;;;;;;7.17;3.93;;;8.80;99.90;;;7.88;100.00;97167.00;5029541;28;20507;-76
2022/12/21 08:51:12;;;;;;;11.93;4.25;;;8.80;99.90;;;7.83;100.00;97175.63;5021932;28;20535;-76
2022/12/21 08:53:39;;;;;;;8.65;3.92;;;8.80;99.90;;;7.77;100.00;97171.31;5009253;28;20492;-76
2022/12/21 08:56:06;;;;;;;9.03;4.20;;;8.80;99.90;;;7.71;100.00;97174.91;5009897;28;20452;-76
2022/12/21 08:58:32;;;;;;;10.57;4.40;;;8.70;99.90;;;7.68;100.00;97176.16;5009782;28;20470;-77
2022/12/21 09:00:58;;;;;;;9.73;4.60;;;8.70;99.90;;;7.68;100.00;97180.63;5009981;28;20412;-77
2022/12/21 09:03:26;;;;;;;14.05;4.60;;;8.70;99.90;;;7.67;100.00;97184.28;5009219;28;20408;-76
2022/12/21 09:05:54;;;;;;;11.20;4.30;;;8.70;99.90;;;7.69;100.00;97177.75;5010067;28;20409;-77
2022/12/21 09:08:20;;;;;;;9.25;4.22;;;8.70;99.90;;;7.83;100.00;97180.88;5018544;28;20917;-77
2022/12/21 09:10:47;;;;;;;13.98;4.40;;;8.80;99.90;;;7.84;100.00;97173.78;5007936;28;20518;-77
2022/12/21 09:13:13;;;;;;;9.77;4.30;;;8.80;99.90;;;7.79;100.00;97171.88;5024023;28;20422;-76
2022/12/21 09:15:43;;;;;;;7.63;4.05;;;8.80;99.90;;;7.87;100.00;97160.94;5029549;28;20446;-76
2022/12/21 09:18:09;;;;;;;15.07;4.82;;;8.90;99.90;;;7.87;100.00;97165.41;5031324;28;20967;-77
2022/12/21 09:20:35;;;;;;;11.77;4.47;;;8.90;99.90;;;7.82;100.00;97163.47;5015751;28;20461;-76
2022/12/21 09:23:01;;;;;;;10.70;4.15;;;8.90;99.90;;;7.78;100.00;97163.16;5032547;28;20924;-76
2022/12/21 09:25:27;;;;;;;16.27;5.05;;;8.80;99.90;;;7.73;100.00;97165.72;5028774;28;20415;-76
2022/12/21 09:27:58;;;;;;;13.80;4.60;;;8.80;99.90;;;7.74;100.00;97163.91;5027436;28;20442;-76
2022/12/21 09:30:24;;;;;;;9.73;4.70;;;8.80;99.90;;;7.78;100.00;97176.34;5062085;22;20476;-78
2022/12/21 09:32:50;;;;;;;9.90;4.55;;;8.80;99.90;;;7.82;100.00;97171.38;5065113;28;20443;-78
2022/12/21 09:35:16;;;;;;;11.23;4.20;;;8.80;99.90;;;7.81;100.00;97175.06;5064336;28;20500;-78
2022/12/21 09:37:42;;;;;;;6.28;3.97;;;8.80;99.90;;;7.87;100.00;97173.31;5070556;28;20999;-80
2022/12/21 09:40:11;;;;;;;10.55;5.10;;;8.80;99.90;;;7.78;100.00;97165.81;5072261;28;20434;-79
2022/12/21 09:42:46;;;;;;;14.68;4.55;;;8.80;99.90;;;7.85;100.00;97168.28;5071011;28;20411;-80
2022/12/21 09:45:21;;;;;;;9.23;4.03;;;8.80;99.90;;;7.83;100.00;97166.91;5067941;28;20424;-79
2022/12/21 09:47:53;;;;;;;11.07;4.43;;;8.90;99.90;;;7.84;100.00;97171.94;5070066;28;20438;-79
2022/12/21 09:50:23;;;;;;;7.95;4.43;;;8.90;99.90;;;7.99;100.00;97179.31;5072623;28;20888;-79
2022/12/21 09:52:58;;;;;;;9.45;4.32;;;9.00;99.90;;;8.02;100.00;97176.19;5064171;28;20403;-77
2022/12/21 09:55:27;;;;;;;9.13;4.30;;;9.00;99.90;;;8.02;100.00;97179.63;5064886;28;20944;-79
2022/12/21 09:57:54;;;;;;;12.52;4.00;;;9.00;99.90;;;8.05;100.00;97189.69;5072173;28;20400;-74
2022/12/21 10:00:24;;;;;;;8.77;4.25;;;9.10;99.90;;;8.21;100.00;97192.56;5072117;28;20486;-76
2022/12/21 10:03:27;;;;;;;9.52;4.25;;;9.20;99.90;;;8.11;100.00;97188.75;5071667;28;20399;-74
2022/12/21 10:06:18;;;;;;;8.63;4.25;;;9.10;99.90;;;8.12;100.00;97178.97;5069237;28;20502;-73
2022/12/21 10:09:21;;;;;;;9.80;4.28;;;9.10;99.90;;;8.18;100.00;97190.41;5072632;28;20484;-74
2022/12/21 10:12:05;;;;;;;9.63;4.38;;;9.20;99.90;;;8.27;100.00;97189.00;5073286;28;20424;-77
2022/12/21 10:14:47;;;;;;;11.90;4.53;;;9.30;99.90;;;8.30;100.00;97193.75;5070102;28;20415;-81
2022/12/21 10:17:40;;;;;;;10.32;4.32;;;9.30;99.90;;;8.25;100.00;97194.50;5051290;28;20390;-81
2022/12/21 10:20:29;;;;;;;8.10;4.35;;;9.20;99.90;;;8.30;100.00;97205.13;5051713;28;20489;-81
2022/12/21 10:23:00;;;;;;;7.28;4.32;;;9.30;99.90;;;8.34;100.00;97206.28;5063467;28;20485;-81
2022/12/21 10:25:38;;;;;;;7.20;4.30;;;9.30;99.90;;;8.32;100.00;97197.78;5072606;28;20452;-81
2022/12/21 10:28:25;;;;;;;14.65;4.60;;;9.30;99.90;;;8.21;100.00;97200.47;5072352;28;20542;-81
2022/12/21 10:31:01;;;;;;;10.70;4.72;;;9.20;99.90;;;8.19;100.00;97199.94;5072030;28;20410;-80
2022/12/21 10:33:29;;;;;;;9.30;5.03;;;9.10;99.90;;;8.30;100.00;97205.13;5071533;28;20484;-81
2022/12/21 10:36:01;;;;;;;7.30;4.63;;;9.20;99.90;;;8.35;100.00;97188.59;5066336;28;20856;-80
2022/12/21 10:38:32;;;;;;;10.07;4.40;;;9.30;99.90;;;8.28;100.00;97193.19;5054370;28;20637;-80
2022/12/21 10:41:00;;;;;;;10.52;4.70;;;9.30;99.90;;;8.28;100.00;97193.19;5071407;28;20412;-81
2022/12/21 10:43:26;;;;;;;10.27;4.45;;;9.30;99.90;;;8.33;100.00;97183.56;5070877;28;20404;-81
2022/12/21 10:45:53;;;;;;;7.47;4.43;;;9.30;99.90;;;8.41;100.00;97180.53;5052912;28;20435;-80
2022/12/21 10:48:19;;;;;;;9.48;4.65;;;9.40;99.90;;;8.57;100.00;97183.38;5064985;28;20501;-82